Time;durP1;ratioP1;P1;durP2;ratioP2;P2;SDS_P1;SDS_P2;PMS_P1;PMS_P2;Temp;Humidity;BMP_temperature;BMP_pressure;BME280_temperature;BME280_humidity;BME280_pressure;Samples;Min_cycle;Max_cycle;Signal;HPM_P1;HPM_P2
2022/04/18 00:02:04;;;;;;;16.60;13.73;;;9.60;77.50;;;;;;5098642;28;20115;-52
2022/04/18 00:04:49;;;;;;;15.10;11.50;;;9.50;76.50;;;;;;5114797;28;20101;-55
2022/04/18 00:07:33;;;;;;;14.50;10.50;;;9.50;75.80;;;;;;5115187;28;20031;-51
2022/04/18 00:10:17;;;;;;;14.60;11.50;;;9.30;75.10;;;;;;5114297;28;20062;-49
2022/04/18 00:13:01;;;;;;;13.30;11.90;;;9.30;75.10;;;;;;5119187;27;20034;-53
2022/04/18 00:15:46;;;;;;;12.97;10.83;;;9.30;75.70;;;;;;5115163;27;20136;-54
2022/04/18 00:18:30;;;;;;;14.60;11.90;;;9.20;75.50;;;;;;5097624;28;20092;-52
2022/04/18 00:21:14;;;;;;;12.33;10.40;;;9.10;75.70;;;;;;5113519;28;20046;-52
2022/04/18 00:23:58;;;;;;;12.15;10.20;;;9.10;74.50;;;;;;5113189;28;20284;-51
2022/04/18 00:26:42;;;;;;;14.82;11.10;;;9.00;75.60;;;;;;5112696;28;20092;-51
2022/04/18 00:29:26;;;;;;;13.85;12.07;;;9.00;76.10;;;;;;5115989;28;20034;-50
2022/04/18 00:32:10;;;;;;;14.13;11.35;;;8.70;76.90;;;;;;5097361;28;20119;-53
2022/04/18 00:34:54;;;;;;;12.55;10.73;;;8.70;77.20;;;;;;5112891;28;20394;-54
2022/04/18 00:37:40;;;;;;;14.18;11.20;;;8.80;77.40;;;;;;5134202;27;20037;-51
2022/04/18 00:40:24;;;;;;;13.05;11.35;;;9.00;77.80;;;;;;5123153;27;20151;-52
2022/04/18 00:43:08;;;;;;;11.77;10.48;;;9.20;77.40;;;;;;5121074;27;20031;-53
2022/04/18 00:45:52;;;;;;;12.45;10.90;;;9.30;76.90;;;;;;5116555;28;20379;-51
2022/04/18 00:48:37;;;;;;;13.03;11.63;;;9.40;77.20;;;;;;5117272;28;20751;-49
2022/04/18 00:51:24;;;;;;;12.90;11.57;;;9.40;77.30;;;;;;5115923;28;20022;-50
2022/04/18 00:54:10;;;;;;;14.27;12.80;;;9.40;77.80;;;;;;5116982;28;20085;-53
2022/04/18 00:56:54;;;;;;;16.80;12.45;;;9.30;79.00;;;;;;5116089;28;20031;-50
2022/04/18 00:59:38;;;;;;;14.45;12.15;;;9.30;79.10;;;;;;5117025;28;20043;-51
2022/04/18 01:02:22;;;;;;;16.02;12.68;;;9.10;78.70;;;;;;5116179;28;20034;-52
2022/04/18 01:05:07;;;;;;;16.48;12.05;;;9.00;78.50;;;;;;5116302;28;20039;-50
2022/04/18 01:07:51;;;;;;;;;;;8.80;78.60;;;;;;5116807;28;20043;-51
2022/04/18 01:10:38;;;;;;;16.98;11.95;;;8.70;78.30;;;;;;5116387;28;19981;-54
2022/04/18 01:13:22;;;;;;;16.17;12.45;;;8.60;78.70;;;;;;5115754;28;20141;-49
2022/04/18 01:16:07;;;;;;;13.80;12.20;;;8.50;79.60;;;;;;5116142;28;20108;-51
2022/04/18 01:18:51;;;;;;;15.38;11.85;;;8.40;80.00;;;;;;5116560;28;20086;-49
2022/04/18 01:21:35;;;;;;;15.40;12.48;;;8.40;80.20;;;;;;5116488;28;20038;-48
2022/04/18 01:30:26;;;;;;;14.85;11.70;;;8.40;81.20;;;;;;5115507;28;20525;-54
2022/04/18 01:33:10;;;;;;;13.35;10.55;;;8.40;81.30;;;;;;5113976;28;20081;-50
2022/04/18 01:35:55;;;;;;;15.97;11.87;;;8.40;81.60;;;;;;5115330;28;20088;-50
2022/04/18 01:38:39;;;;;;;15.93;11.82;;;8.50;81.70;;;;;;5115689;28;20043;-49
2022/04/18 01:41:23;;;;;;;13.57;11.32;;;8.60;81.50;;;;;;5116490;28;20136;-51
2022/04/18 01:44:07;;;;;;;14.55;11.43;;;8.60;81.70;;;;;;5115640;28;20073;-49
2022/04/18 01:46:51;;;;;;;13.00;10.75;;;8.70;81.70;;;;;;5115322;28;20128;-50
2022/04/18 01:49:35;;;;;;;15.97;10.57;;;8.70;81.80;;;;;;5116282;28;20038;-51
2022/04/18 01:52:19;;;;;;;13.75;11.10;;;8.70;81.60;;;;;;5115585;28;20046;-49
2022/04/18 01:55:04;;;;;;;25.77;18.60;;;8.60;81.30;;;;;;5116077;28;20038;-49
2022/04/18 01:57:48;;;;;;;15.82;12.38;;;8.60;81.30;;;;;;5116035;28;20043;-55
2022/04/18 02:00:32;;;;;;;14.23;11.47;;;8.60;81.50;;;;;;5116612;28;20157;-51
2022/04/18 02:03:16;;;;;;;14.27;10.88;;;8.50;81.80;;;;;;5115074;28;20038;-48
2022/04/18 02:06:01;;;;;;;13.27;10.83;;;8.40;82.00;;;;;;5115357;28;20118;-52
2022/04/18 02:08:45;;;;;;;13.68;11.57;;;8.10;82.30;;;;;;5115925;28;20706;-53
2022/04/18 02:11:29;;;;;;;15.48;10.65;;;7.90;82.80;;;;;;5115349;28;20086;-50
2022/04/18 02:14:13;;;;;;;12.60;10.98;;;7.80;83.00;;;;;;5115075;28;20030;-53
2022/04/18 02:16:57;;;;;;;11.65;10.18;;;7.80;83.90;;;;;;5115273;28;20109;-49
2022/04/18 02:19:42;;;;;;;15.77;11.65;;;7.80;84.40;;;;;;5099587;28;20390;-53
2022/04/18 02:22:27;;;;;;;16.17;10.90;;;7.70;85.10;;;;;;5114835;28;20042;-54
2022/04/18 02:25:11;;;;;;;17.45;10.23;;;7.60;85.70;;;;;;5085161;28;20069;-54
2022/04/18 02:27:56;;;;;;;13.13;9.82;;;7.50;85.90;;;;;;5115077;28;20070;-52
2022/04/18 02:30:40;;;;;;;11.88;9.98;;;7.50;86.70;;;;;;5114796;28;20085;-53
2022/04/18 02:33:24;;;;;;;14.65;10.90;;;7.50;86.70;;;;;;5113495;28;20038;-54
2022/04/18 02:36:09;;;;;;;12.45;10.65;;;7.60;86.40;;;;;;5115547;28;20506;-55
2022/04/18 02:38:53;;;;;;;13.52;10.25;;;7.60;86.10;;;;;;5098840;28;20435;-54
2022/04/18 02:41:37;;;;;;;12.15;10.02;;;7.50;87.10;;;;;;5114479;28;20035;-52
2022/04/18 02:44:21;;;;;;;13.05;11.00;;;7.50;87.10;;;;;;5114035;28;20058;-55
2022/04/18 02:47:05;;;;;;;12.67;10.07;;;7.50;87.00;;;;;;5113733;28;20035;-51
2022/04/18 02:49:52;;;;;;;12.00;9.85;;;7.50;87.00;;;;;;5114277;28;20031;-52
2022/04/18 02:52:36;;;;;;;12.57;10.63;;;7.60;86.70;;;;;;5099508;28;20054;-48
2022/04/18 02:55:21;;;;;;;12.85;9.75;;;7.60;86.70;;;;;;5113945;28;20042;-54
2022/04/18 02:58:05;;;;;;;12.15;10.20;;;7.70;87.40;;;;;;5115040;28;20081;-48
2022/04/18 03:00:49;;;;;;;12.18;9.98;;;7.70;87.00;;;;;;5099662;28;20062;-48
2022/04/18 03:03:33;;;;;;;14.32;10.52;;;7.70;87.20;;;;;;5114004;28;20081;-52
2022/04/18 03:06:17;;;;;;;11.52;9.35;;;7.90;87.20;;;;;;5114829;28;20038;-49
2022/04/18 03:09:01;;;;;;;11.68;9.95;;;7.90;86.90;;;;;;5115231;28;20055;-48
2022/04/18 03:11:46;;;;;;;11.23;9.80;;;8.00;86.40;;;;;;5123198;27;20034;-51
2022/04/18 03:14:30;;;;;;;14.95;9.90;;;8.00;86.70;;;;;;5114048;28;20557;-48
2022/04/18 03:17:13;;;;;;;12.68;10.20;;;8.10;86.70;;;;;;5114354;28;20452;-50
2022/04/18 03:19:58;;;;;;;14.75;10.15;;;8.00;86.60;;;;;;5114617;28;20517;-52
2022/04/18 03:22:41;;;;;;;15.50;10.27;;;8.00;86.70;;;;;;5114209;28;20042;-50
2022/04/18 03:25:25;;;;;;;11.68;9.73;;;7.90;87.10;;;;;;5099123;28;20559;-51
2022/04/18 03:28:10;;;;;;;12.25;9.93;;;7.90;88.00;;;;;;5114786;28;20038;-50
2022/04/18 03:30:54;;;;;;;13.80;10.32;;;7.80;88.10;;;;;;5114336;28;20030;-52
2022/04/18 03:33:38;;;;;;;13.57;10.73;;;7.80;87.90;;;;;;5113771;28;20502;-50
2022/04/18 03:39:50;;;;;;;11.10;9.60;;;7.70;87.80;;;;;;5113756;28;20035;-52
2022/04/18 03:42:32;;;;;;;12.45;10.13;;;7.40;89.70;;;;;;5114008;28;20038;-55
2022/04/18 03:45:16;;;;;;;14.20;10.67;;;7.40;90.00;;;;;;5115120;28;20042;-54
2022/04/18 03:48:00;;;;;;;13.23;10.65;;;7.40;90.10;;;;;;5115267;28;20505;-53
2022/04/18 03:50:44;;;;;;;12.98;10.57;;;7.20;90.40;;;;;;5114534;28;20035;-53
2022/04/18 03:53:28;;;;;;;13.93;11.02;;;7.20;90.50;;;;;;5113081;28;20081;-55
2022/04/18 03:56:12;;;;;;;12.32;10.32;;;7.30;90.80;;;;;;5113299;28;20038;-54
2022/04/18 03:58:56;;;;;;;14.03;10.83;;;7.20;90.80;;;;;;5113180;28;20125;-51
2022/04/18 04:01:40;;;;;;;11.85;10.07;;;7.30;90.70;;;;;;5112992;28;20097;-57
2022/04/18 04:04:25;;;;;;;12.55;10.57;;;7.30;90.70;;;;;;5114528;27;20058;-56
2022/04/18 04:07:09;;;;;;;;;;;7.30;90.20;;;;;;5110157;27;20092;-55
2022/04/18 04:09:53;;;;;;;12.90;10.82;;;7.20;90.60;;;;;;5133906;27;20438;-55
2022/04/18 04:12:37;;;;;;;11.50;10.23;;;7.10;90.50;;;;;;5134131;27;20037;-57
2022/04/18 04:15:22;;;;;;;14.30;10.07;;;6.90;91.10;;;;;;5124804;27;20053;-54
2022/04/18 04:18:06;;;;;;;11.95;9.80;;;6.90;91.10;;;;;;5093729;28;20081;-53
2022/04/18 04:20:50;;;;;;;15.30;11.27;;;6.90;91.00;;;;;;5093210;28;20107;-57
2022/04/18 04:23:34;;;;;;;11.27;10.07;;;6.90;91.10;;;;;;5093261;28;20039;-56
2022/04/18 04:26:18;;;;;;;11.50;9.40;;;7.00;91.20;;;;;;5093740;28;20072;-55
2022/04/18 04:29:02;;;;;;;10.93;9.52;;;7.00;91.40;;;;;;5092405;28;20663;-55
2022/04/18 04:31:47;;;;;;;11.65;10.40;;;7.10;91.30;;;;;;5121807;28;20035;-52
2022/04/18 04:34:31;;;;;;;10.98;9.73;;;7.10;91.20;;;;;;5113630;28;20038;-53
2022/04/18 04:37:15;;;;;;;12.77;10.23;;;7.20;91.20;;;;;;5112623;28;20039;-51
2022/04/18 04:39:59;;;;;;;11.32;9.98;;;7.10;91.50;;;;;;5112399;28;20100;-54
2022/04/18 04:42:43;;;;;;;13.50;10.15;;;7.20;91.30;;;;;;5119132;28;20098;-57
2022/04/18 04:45:27;;;;;;;11.77;9.82;;;7.20;91.30;;;;;;5112149;28;20049;-50
2022/04/18 04:48:11;;;;;;;12.93;10.27;;;7.30;91.00;;;;;;5113168;28;20027;-54
2022/04/18 04:50:56;;;;;;;12.85;10.40;;;7.30;90.90;;;;;;5113754;28;20035;-54
2022/04/18 04:53:40;;;;;;;13.38;10.55;;;7.40;90.80;;;;;;5112396;28;20544;-56
2022/04/18 04:56:25;;;;;;;12.43;9.50;;;7.40;90.70;;;;;;5112633;28;20141;-53
2022/04/18 04:59:09;;;;;;;14.82;10.93;;;7.30;90.70;;;;;;5122093;28;20034;-56
2022/04/18 05:01:53;;;;;;;14.00;10.63;;;7.30;90.50;;;;;;5114378;28;20046;-57
2022/04/18 05:04:37;;;;;;;12.15;9.75;;;7.30;90.90;;;;;;5112690;28;20078;-54
2022/04/18 05:07:20;;;;;;;12.82;9.80;;;7.30;91.00;;;;;;5112405;28;20061;-55
2022/04/18 05:10:05;;;;;;;13.35;10.55;;;7.30;91.10;;;;;;5117291;28;20054;-56
2022/04/18 05:12:50;;;;;;;;;;;7.20;90.90;;;;;;5115205;28;20039;-57
2022/04/18 05:15:34;;;;;;;14.15;10.00;;;7.30;91.10;;;;;;5115923;28;20441;-56
2022/04/18 05:18:18;;;;;;;16.02;11.57;;;7.20;91.10;;;;;;5127484;27;20038;-56
2022/04/18 05:21:02;;;;;;;12.90;10.52;;;7.20;91.00;;;;;;5095749;28;20162;-56
2022/04/18 05:23:48;;;;;;;12.57;9.80;;;7.20;90.90;;;;;;5101775;27;20559;-53
2022/04/18 05:26:32;;;;;;;10.88;9.27;;;7.20;90.70;;;;;;5135457;27;20107;-52
2022/04/18 05:29:16;;;;;;;11.48;9.82;;;7.20;90.80;;;;;;5136498;27;20093;-57
2022/04/18 05:32:01;;;;;;;13.13;9.88;;;7.30;91.10;;;;;;5114863;28;20042;-52
2022/04/18 05:34:45;;;;;;;14.57;10.18;;;7.30;90.90;;;;;;5115643;28;20093;-57
2022/04/18 05:37:29;;;;;;;12.95;10.13;;;7.40;90.90;;;;;;5115529;28;20038;-57
2022/04/18 05:40:13;;;;;;;12.93;9.85;;;7.40;90.80;;;;;;5116666;28;20077;-56
2022/04/18 05:43:00;;;;;;;12.23;9.67;;;7.50;90.50;;;;;;5114996;28;20100;-55
2022/04/18 05:45:48;;;;;;;13.35;10.35;;;7.50;90.00;;;;;;5099373;28;20288;-58
2022/04/18 05:48:32;;;;;;;12.45;9.73;;;7.60;89.30;;;;;;5115497;28;20034;-54
2022/04/18 05:51:16;;;;;;;13.00;9.77;;;7.60;90.00;;;;;;5115945;28;20116;-51
2022/04/18 05:54:01;;;;;;;12.23;10.18;;;7.70;90.00;;;;;;5123351;27;20095;-54
2022/04/18 05:56:45;;;;;;;;;;;7.80;89.90;;;;;;5121701;27;20112;-55
2022/04/18 05:59:29;;;;;;;14.23;10.27;;;7.90;88.70;;;;;;5119388;27;19933;-57
2022/04/18 06:02:14;;;;;;;17.23;11.35;;;8.00;88.90;;;;;;5114556;28;20590;-57
2022/04/18 06:04:58;;;;;;;12.00;9.95;;;8.00;88.50;;;;;;5107173;27;20038;-54
2022/04/18 06:07:45;;;;;;;14.75;9.95;;;8.20;87.70;;;;;;5117663;27;20398;-56
2022/04/18 06:10:29;;;;;;;13.27;9.48;;;8.30;87.30;;;;;;5115632;28;20031;-56
2022/04/18 06:13:13;;;;;;;15.00;9.98;;;8.40;86.80;;;;;;5115121;28;20054;-55
2022/04/18 06:15:57;;;;;;;18.90;10.90;;;8.50;85.70;;;;;;5113934;28;20108;-55
2022/04/18 06:18:41;;;;;;;13.32;9.63;;;8.60;85.80;;;;;;5114514;28;20093;-53
2022/04/18 06:21:25;;;;;;;13.48;9.90;;;8.50;85.50;;;;;;5114514;28;20030;-53
2022/04/18 06:24:09;;;;;;;14.50;9.52;;;8.50;86.40;;;;;;5099064;28;20112;-56
2022/04/18 06:26:53;;;;;;;12.38;9.25;;;8.60;86.00;;;;;;5114094;28;20580;-54
2022/04/18 06:29:37;;;;;;;10.55;9.02;;;8.70;85.50;;;;;;5119072;27;20047;-55
2022/04/18 06:32:24;;;;;;;12.15;8.88;;;8.90;85.50;;;;;;5094106;27;20398;-54
2022/04/18 06:35:10;;;;;;;13.07;10.00;;;9.00;85.20;;;;;;5105480;28;20058;-57
2022/04/18 06:37:54;;;;;;;13.70;10.70;;;9.00;85.50;;;;;;5099221;28;20031;-54
2022/04/18 06:40:38;;;;;;;12.63;9.25;;;9.10;85.80;;;;;;5099340;28;20110;-56
2022/04/18 06:43:22;;;;;;;9.95;8.60;;;9.30;85.30;;;;;;5113728;28;20035;-56
2022/04/18 06:46:06;;;;;;;9.88;8.68;;;9.20;83.20;;;;;;5107035;28;20042;-53
2022/04/18 06:48:50;;;;;;;13.20;9.07;;;9.20;83.40;;;;;;5115636;28;20034;-54
2022/04/18 06:51:34;;;;;;;11.68;8.75;;;9.20;83.50;;;;;;5100276;28;20035;-55
2022/04/18 06:54:18;;;;;;;13.47;9.40;;;9.40;84.00;;;;;;5115096;28;20032;-54
2022/04/18 06:57:03;;;;;;;16.95;8.98;;;9.50;82.40;;;;;;5112453;28;20329;-52
2022/04/18 06:59:47;;;;;;;13.05;8.55;;;9.50;81.90;;;;;;5113629;28;20034;-56
2022/04/18 07:02:32;;;;;;;11.88;9.70;;;9.60;81.40;;;;;;5110865;28;20505;-55
2022/04/18 07:05:16;;;;;;;;;;;9.70;80.80;;;;;;5111929;28;20034;-56
2022/04/18 07:08:00;;;;;;;13.73;9.50;;;9.90;80.30;;;;;;5112393;28;19915;-54
2022/04/18 07:10:44;;;;;;;12.15;9.15;;;9.80;80.50;;;;;;5097526;28;20550;-52
2022/04/18 07:13:29;;;;;;;13.60;9.13;;;9.80;80.30;;;;;;5112745;28;20521;-51
2022/04/18 07:16:13;;;;;;;13.40;8.60;;;9.90;79.70;;;;;;5110981;28;20362;-51
2022/04/18 07:18:58;;;;;;;13.27;8.63;;;10.00;79.00;;;;;;5096036;28;20038;-53
2022/04/18 07:21:42;;;;;;;;;;;10.10;77.80;;;;;;5109514;28;20101;-55
2022/04/18 07:24:26;;;;;;;13.05;10.02;;;10.20;77.00;;;;;;5110314;28;19965;-54
2022/04/18 07:27:10;;;;;;;12.07;10.35;;;10.20;77.90;;;;;;5110967;28;20128;-57
2022/04/18 07:29:55;;;;;;;13.88;10.05;;;10.20;78.10;;;;;;5111160;28;20043;-53
2022/04/18 07:32:41;;;;;;;12.43;9.95;;;10.20;78.70;;;;;;5111705;28;20019;-53
2022/04/18 07:35:26;;;;;;;14.70;10.63;;;10.30;78.20;;;;;;5119639;27;20081;-51
2022/04/18 07:41:14;;;;;;;13.75;9.75;;;10.60;78.40;;;;;;5088788;28;20036;-53
2022/04/18 07:43:58;;;;;;;12.50;9.93;;;10.70;77.90;;;;;;5101848;28;20395;-56
2022/04/18 07:46:42;;;;;;;13.83;10.27;;;10.90;77.70;;;;;;5101687;28;20054;-53
2022/04/18 07:49:26;;;;;;;12.43;10.07;;;11.10;77.10;;;;;;5104336;28;20023;-51
2022/04/18 07:52:12;;;;;;;14.02;10.40;;;11.10;76.50;;;;;;5103405;28;20035;-54
2022/04/18 07:54:56;;;;;;;13.98;10.32;;;11.20;76.10;;;;;;5101124;28;20082;-56
2022/04/18 07:57:40;;;;;;;13.80;9.52;;;11.30;74.10;;;;;;5102125;28;20034;-56
2022/04/18 08:00:24;;;;;;;13.57;9.93;;;11.20;74.30;;;;;;5103717;28;20027;-56
2022/04/18 08:03:08;;;;;;;14.23;10.70;;;11.20;74.50;;;;;;5090552;28;20449;-57
2022/04/18 08:05:56;;;;;;;14.70;9.88;;;11.40;74.00;;;;;;5103051;28;20092;-59
2022/04/18 08:08:40;;;;;;;12.90;9.32;;;11.60;72.80;;;;;;5087573;28;20080;-53
2022/04/18 08:11:24;;;;;;;12.65;9.35;;;11.60;71.90;;;;;;5101777;28;20144;-57
2022/04/18 08:14:08;;;;;;;13.90;9.48;;;11.60;70.10;;;;;;5099748;28;20046;-54
2022/04/18 08:16:52;;;;;;;15.40;10.90;;;11.60;69.00;;;;;;5106543;28;20101;-55
2022/04/18 08:19:39;;;;;;;14.40;9.35;;;11.40;69.20;;;;;;5095783;28;20101;-54
2022/04/18 08:22:23;;;;;;;13.23;8.85;;;11.40;70.60;;;;;;5112146;28;20038;-54
2022/04/18 08:25:08;;;;;;;11.15;9.27;;;11.40;69.60;;;;;;5109426;28;20124;-52
2022/04/18 08:27:52;;;;;;;12.60;9.00;;;11.50;70.30;;;;;;5110704;28;20407;-53
2022/04/18 08:30:37;;;;;;;15.37;10.53;;;11.60;70.10;;;;;;5111516;28;20046;-54
2022/04/18 08:33:21;;;;;;;14.10;9.82;;;11.70;69.50;;;;;;5111838;28;20035;-56
2022/04/18 08:36:05;;;;;;;19.65;13.15;;;11.60;70.50;;;;;;5112333;28;20518;-56
2022/04/18 08:38:50;;;;;;;11.30;8.82;;;11.60;71.60;;;;;;5110170;28;20054;-55
2022/04/18 08:41:38;;;;;;;10.90;8.80;;;11.70;71.20;;;;;;5108555;28;20111;-53
2022/04/18 08:44:25;;;;;;;13.38;9.90;;;11.80;70.20;;;;;;5115233;27;20081;-59
2022/04/18 08:52:43;;;;;;;15.05;10.10;;;11.60;70.90;;;;;;5117184;27;20034;-53
2022/04/18 08:53:18;;;;;;;13.25;9.73;;;12.00;70.30;;;;;;5110952;27;19972;-56
2022/04/18 08:56:03;;;;;;;13.73;9.60;;;12.10;69.70;;;;;;5104717;27;20030;-55
2022/04/18 08:58:47;;;;;;;11.75;9.95;;;12.20;70.20;;;;;;5099402;28;20072;-53
2022/04/18 09:01:31;;;;;;;13.93;10.82;;;12.30;70.20;;;;;;5103687;27;20100;-54
2022/04/18 09:04:15;;;;;;;16.17;11.40;;;12.50;70.80;;;;;;5117234;27;20560;-52
2022/04/18 09:07:09;;;;;;;15.15;10.57;;;12.50;71.10;;;;;;5118914;27;20123;-57
2022/04/18 09:09:55;;;;;;;14.48;10.68;;;12.40;71.50;;;;;;5127196;27;20509;-60
2022/04/18 09:12:44;;;;;;;15.77;11.25;;;12.20;71.40;;;;;;5136451;27;20030;-56
2022/04/18 09:15:34;;;;;;;15.18;11.15;;;12.40;71.30;;;;;;5128234;27;20440;-56
2022/04/18 09:18:20;;;;;;;15.07;11.38;;;12.30;71.00;;;;;;5115828;28;20049;-55
2022/04/18 09:21:05;;;;;;;15.38;11.40;;;12.50;70.30;;;;;;5116526;28;20088;-56
2022/04/18 09:23:49;;;;;;;14.87;11.03;;;12.50;69.20;;;;;;5115587;28;20034;-56
2022/04/18 09:26:34;;;;;;;;;;;12.40;69.20;;;;;;5116615;28;20104;-55
2022/04/18 09:29:18;;;;;;;14.52;11.70;;;12.30;68.50;;;;;;5115836;28;19915;-56
2022/04/18 09:32:07;;;;;;;13.80;10.50;;;12.30;68.10;;;;;;5098584;28;20126;-58
2022/04/18 09:35:02;;;;;;;15.40;10.65;;;12.60;67.80;;;;;;5115888;28;20085;-56
2022/04/18 09:37:46;;;;;;;;;;;12.40;67.70;;;;;;5116255;28;20410;-54
2022/04/18 09:40:32;;;;;;;12.88;8.98;;;12.40;67.50;;;;;;5116761;28;19915;-53
2022/04/18 09:43:16;;;;;;;11.75;9.15;;;12.60;67.80;;;;;;5134423;27;20664;-55
2022/04/18 09:46:01;;;;;;;12.65;9.10;;;12.70;67.10;;;;;;5137392;27;20033;-54
2022/04/18 09:48:47;;;;;;;11.07;8.50;;;12.90;67.80;;;;;;5136313;27;20038;-55
2022/04/18 09:51:37;;;;;;;11.80;9.43;;;13.20;67.20;;;;;;5136280;27;20038;-58
2022/04/18 09:54:22;;;;;;;11.18;8.93;;;13.40;66.10;;;;;;5135951;27;20072;-56
2022/04/18 09:57:07;;;;;;;;;;;13.30;64.10;;;;;;5136267;27;20042;-56
2022/04/18 09:59:53;;;;;;;10.90;8.23;;;13.10;65.00;;;;;;5125267;27;19914;-55
2022/04/18 10:02:38;;;;;;;10.52;8.65;;;13.10;64.10;;;;;;5114843;28;20055;-57
2022/04/18 10:05:25;;;;;;;10.32;8.18;;;12.80;64.30;;;;;;5114510;28;20085;-57
2022/04/18 10:08:09;;;;;;;10.27;8.18;;;12.90;65.20;;;;;;5114459;28;20422;-58
2022/04/18 10:10:56;;;;;;;10.73;8.30;;;13.00;65.00;;;;;;5099520;28;20046;-57
2022/04/18 10:13:41;;;;;;;10.95;8.00;;;13.10;64.40;;;;;;5114691;28;20031;-55
2022/04/18 10:16:28;;;;;;;10.50;6.57;;;13.40;63.80;;;;;;5099264;28;20034;-57
2022/04/18 10:19:54;;;;;;;12.65;7.60;;;13.40;63.20;;;;;;5115447;28;20448;-56
2022/04/18 10:23:03;;;;;;;8.75;7.22;;;13.50;63.50;;;;;;5099975;28;20769;-54
2022/04/18 10:26:30;;;;;;;11.93;8.07;;;13.60;63.20;;;;;;5115042;28;20066;-56
2022/04/18 10:29:21;;;;;;;15.73;8.93;;;13.50;63.00;;;;;;5115605;28;20023;-54
2022/04/18 10:32:08;;;;;;;9.57;7.55;;;13.50;62.90;;;;;;5114700;28;20395;-57
2022/04/18 10:34:56;;;;;;;9.65;7.78;;;13.60;62.10;;;;;;5115040;28;20441;-55
2022/04/18 10:37:42;;;;;;;8.95;7.30;;;13.60;62.70;;;;;;5099645;28;20150;-54
2022/04/18 10:40:27;;;;;;;8.10;6.20;;;13.70;61.90;;;;;;5115309;28;20411;-56
2022/04/18 10:43:14;;;;;;;7.78;6.32;;;13.70;60.80;;;;;;5131979;27;20092;-55
2022/04/18 10:46:18;;;;;;;6.65;5.38;;;13.70;59.20;;;;;;5134560;27;20042;-55
2022/04/18 10:49:05;;;;;;;9.43;6.22;;;13.60;56.40;;;;;;5135986;27;20053;-57
2022/04/18 10:51:52;;;;;;;8.13;5.68;;;13.30;56.80;;;;;;5134857;27;20102;-56
2022/04/18 10:54:37;;;;;;;5.18;3.97;;;13.50;57.00;;;;;;5119177;27;20478;-55
2022/04/18 10:57:27;;;;;;;7.27;4.67;;;13.50;52.80;;;;;;5135431;27;20042;-56
2022/04/18 11:00:11;;;;;;;5.88;4.25;;;13.60;52.30;;;;;;5122225;27;20026;-56
2022/04/18 11:02:55;;;;;;;7.40;4.23;;;13.50;51.10;;;;;;5113283;28;20092;-56
2022/04/18 11:05:40;;;;;;;5.97;4.63;;;13.80;50.40;;;;;;5114183;28;20873;-58
2022/04/18 11:08:25;;;;;;;6.75;4.43;;;14.10;50.80;;;;;;5094276;28;20082;-57
2022/04/18 11:11:17;;;;;;;6.03;4.40;;;14.10;49.60;;;;;;5094824;28;20039;-56
2022/04/18 11:14:02;;;;;;;7.35;5.05;;;14.10;50.30;;;;;;5093722;28;20048;-56
2022/04/18 11:16:49;;;;;;;8.13;4.88;;;14.20;51.00;;;;;;5095116;28;20518;-56
2022/04/18 11:19:43;;;;;;;6.53;4.70;;;14.20;50.80;;;;;;5093842;28;20043;-54
2022/04/18 11:22:27;;;;;;;6.90;5.40;;;14.30;51.50;;;;;;5093259;28;20035;-54
2022/04/18 11:25:11;;;;;;;7.17;4.87;;;14.40;50.10;;;;;;5095220;28;20031;-58
2022/04/18 11:27:56;;;;;;;7.37;5.50;;;14.60;50.00;;;;;;5095780;28;20035;-57
2022/04/18 11:30:41;;;;;;;9.10;5.43;;;14.40;49.30;;;;;;5095768;28;20661;-55
2022/04/18 11:33:25;;;;;;;5.40;4.53;;;14.60;50.90;;;;;;5094319;28;20138;-57
2022/04/18 11:36:11;;;;;;;7.88;5.35;;;14.60;50.70;;;;;;5092457;28;20097;-59
2022/04/18 11:39:06;;;;;;;7.57;5.65;;;14.60;51.00;;;;;;5093911;28;20055;-55
2022/04/18 11:42:05;;;;;;;7.47;5.95;;;14.50;50.90;;;;;;5103588;27;20033;-59
2022/04/18 11:44:51;;;;;;;7.45;5.60;;;14.60;50.20;;;;;;5133644;27;20406;-54
2022/04/18 11:47:44;;;;;;;6.85;4.70;;;14.70;49.70;;;;;;5133838;27;20399;-55
2022/04/18 11:50:29;;;;;;;5.38;4.80;;;14.60;48.90;;;;;;5133688;27;20030;-55
2022/04/18 11:53:13;;;;;;;7.30;4.97;;;14.40;48.80;;;;;;5133404;27;20030;-56
2022/04/18 11:55:57;;;;;;;7.13;4.97;;;14.40;48.40;;;;;;5133768;27;20065;-56
2022/04/18 11:58:41;;;;;;;8.20;5.05;;;14.50;49.10;;;;;;5133684;27;20271;-53
2022/04/18 12:07:32;;;;;;;8.15;5.72;;;14.50;53.00;;;;;;5113101;28;20123;-56
2022/04/18 12:10:23;;;;;;;7.22;4.88;;;14.70;53.10;;;;;;5113164;28;20096;-54
2022/04/18 12:13:09;;;;;;;5.07;4.38;;;15.00;49.60;;;;;;5112633;28;20054;-56
2022/04/18 12:15:53;;;;;;;6.80;4.88;;;14.90;48.80;;;;;;5112267;28;20039;-55
2022/04/18 12:18:37;;;;;;;6.97;4.57;;;15.00;48.10;;;;;;5113354;28;20034;-57
2022/04/18 12:21:24;;;;;;;6.57;4.57;;;15.10;47.60;;;;;;5098217;28;20355;-56
2022/04/18 12:24:08;;;;;;;6.50;5.38;;;14.90;49.10;;;;;;5113346;28;20046;-57
2022/04/18 12:26:53;;;;;;;7.73;5.40;;;14.80;50.10;;;;;;5112875;28;20038;-55
2022/04/18 12:29:38;;;;;;;6.88;4.90;;;15.10;50.10;;;;;;5113799;28;20158;-57
2022/04/18 12:32:26;;;;;;;7.43;6.03;;;15.30;51.40;;;;;;5112757;28;20591;-55
2022/04/18 12:35:10;;;;;;;7.63;5.50;;;15.50;50.70;;;;;;5099309;28;20526;-56
2022/04/18 12:38:01;;;;;;;7.83;5.87;;;15.40;51.20;;;;;;5113509;28;20066;-56
2022/04/18 12:40:53;;;;;;;6.43;5.03;;;15.50;51.30;;;;;;5113524;28;20022;-56
2022/04/18 12:43:39;;;;;;;5.97;5.38;;;15.70;51.30;;;;;;5092318;28;20054;-53
2022/04/18 12:46:33;;;;;;;6.65;5.40;;;15.90;50.70;;;;;;5093360;28;20125;-59
2022/04/18 12:49:17;;;;;;;5.72;4.82;;;15.80;51.20;;;;;;5091921;28;20039;-57
2022/04/18 12:52:06;;;;;;;7.17;6.37;;;15.80;50.40;;;;;;5091034;28;20078;-56
2022/04/18 12:54:50;;;;;;;7.25;5.57;;;16.00;50.20;;;;;;5092062;28;20261;-57
2022/04/18 12:57:35;;;;;;;7.95;5.95;;;16.10;50.50;;;;;;5091801;28;20039;-53
2022/04/18 13:00:20;;;;;;;7.13;5.95;;;15.90;51.00;;;;;;5096753;28;20034;-53
2022/04/18 13:03:08;;;;;;;6.70;5.55;;;15.70;51.70;;;;;;5111888;28;20422;-53
2022/04/18 13:05:52;;;;;;;7.78;5.53;;;15.90;52.00;;;;;;5111710;28;20572;-57
2022/04/18 13:08:38;;;;;;;6.72;5.40;;;16.00;52.10;;;;;;5092044;28;20490;-55
2022/04/18 13:11:22;;;;;;;12.90;9.50;;;16.20;52.50;;;;;;5091778;28;20058;-54
2022/04/18 13:14:08;;;;;;;6.95;5.95;;;16.40;52.30;;;;;;5076419;28;20435;-56
2022/04/18 13:17:10;;;;;;;7.45;6.30;;;16.30;51.90;;;;;;5091329;28;20121;-56
2022/04/18 13:19:54;;;;;;;10.02;6.40;;;16.60;52.60;;;;;;5092358;28;20105;-60
2022/04/18 13:22:39;;;;;;;6.40;5.70;;;16.90;51.60;;;;;;5091836;28;20032;-55
2022/04/18 13:25:23;;;;;;;7.75;5.07;;;16.80;50.40;;;;;;5092114;28;20035;-57
2022/04/18 13:28:09;;;;;;;6.90;5.45;;;16.80;50.70;;;;;;5092315;28;20082;-57
2022/04/18 13:30:53;;;;;;;8.27;6.10;;;16.90;50.20;;;;;;5092168;28;20042;-55
2022/04/18 13:33:37;;;;;;;8.00;5.67;;;16.90;49.80;;;;;;5091658;28;20067;-53
2022/04/18 13:36:36;;;;;;;6.75;5.03;;;16.90;50.20;;;;;;5094607;28;20043;-54
2022/04/18 13:39:20;;;;;;;7.78;5.82;;;17.00;49.40;;;;;;5095438;28;20403;-56
2022/04/18 13:42:04;;;;;;;7.32;6.25;;;16.90;49.90;;;;;;5110147;27;20026;-64
2022/04/18 13:44:48;;;;;;;7.07;5.82;;;16.70;50.90;;;;;;5137333;27;20039;-56
2022/04/18 13:47:32;;;;;;;5.93;5.25;;;16.80;51.00;;;;;;5135647;27;20556;-56
2022/04/18 13:50:16;;;;;;;7.90;6.32;;;17.10;51.60;;;;;;5136357;27;20081;-56
2022/04/18 13:53:01;;;;;;;7.28;5.97;;;17.40;51.30;;;;;;5135520;27;20030;-56
2022/04/18 13:55:48;;;;;;;7.32;6.22;;;17.70;50.60;;;;;;5110635;27;20058;-56
2022/04/18 13:58:32;;;;;;;8.98;7.10;;;17.30;50.60;;;;;;5112781;28;20097;-56
2022/04/18 14:01:17;;;;;;;;;;;17.60;50.60;;;;;;5102076;27;20061;-55
2022/04/18 14:04:03;;;;;;;6.78;5.53;;;17.90;50.00;;;;;;5112247;28;19915;-58
2022/04/18 14:06:47;;;;;;;7.35;5.93;;;18.20;50.60;;;;;;5112479;28;20074;-54
2022/04/18 14:09:31;;;;;;;5.93;5.33;;;18.10;49.70;;;;;;5112396;28;20034;-53
2022/04/18 14:12:15;;;;;;;6.47;5.57;;;18.20;49.90;;;;;;5112775;27;20464;-54
2022/04/18 14:21:06;;;;;;;11.65;8.75;;;18.60;50.10;;;;;;5103162;28;20043;-55
2022/04/18 14:23:50;;;;;;;9.93;7.85;;;18.90;49.80;;;;;;5103887;28;20031;-54
2022/04/18 14:26:35;;;;;;;8.65;7.72;;;19.00;49.50;;;;;;5104734;28;20454;-54
2022/04/18 14:29:20;;;;;;;8.68;6.20;;;18.90;49.40;;;;;;5106704;28;20505;-55
2022/04/18 14:32:04;;;;;;;;;;;18.80;49.40;;;;;;5105438;28;20553;-54
2022/04/18 14:34:48;;;;;;;6.65;5.93;;;18.90;49.50;;;;;;5103364;28;19915;-56
2022/04/18 14:37:32;;;;;;;7.88;6.15;;;19.00;49.80;;;;;;5105117;27;20042;-57
2022/04/18 14:40:16;;;;;;;6.32;5.55;;;18.90;49.40;;;;;;5108511;27;20038;-58
2022/04/18 14:43:01;;;;;;;7.60;6.10;;;19.10;50.20;;;;;;5107469;28;20047;-57
2022/04/18 14:45:45;;;;;;;6.82;6.13;;;18.90;50.60;;;;;;5086355;28;20059;-58